sensor_id;sensor_type;location;lat;lon;timestamp;temperature;humidity
37412;DHT22;23278;52.110;6.050;2022-07-12T00:02:11;15.00;99.90
37412;DHT22;23278;52.110;6.050;2022-07-12T00:04:37;14.90;99.90
37412;DHT22;23278;52.110;6.050;2022-07-12T00:07:04;14.90;99.90
37412;DHT22;23278;52.110;6.050;2022-07-12T00:09:30;14.80;99.90
37412;DHT22;23278;52.110;6.050;2022-07-12T00:11:56;14.80;99.90
37412;DHT22;23278;52.110;6.050;2022-07-12T00:14:24;14.80;99.90
37412;DHT22;23278;52.110;6.050;2022-07-12T00:16:50;14.80;99.90
37412;DHT22;23278;52.110;6.050;2022-07-12T00:19:17;14.70;99.90
37412;DHT22;23278;52.110;6.050;2022-07-12T00:21:43;14.70;99.90
37412;DHT22;23278;52.110;6.050;2022-07-12T00:24:09;14.70;99.90
37412;DHT22;23278;52.110;6.050;2022-07-12T00:26:36;14.60;99.90
37412;DHT22;23278;52.110;6.050;2022-07-12T00:29:02;14.60;99.90
37412;DHT22;23278;52.110;6.050;2022-07-12T00:31:28;14.60;99.90
37412;DHT22;23278;52.110;6.050;2022-07-12T00:33:54;14.60;99.90
37412;DHT22;23278;52.110;6.050;2022-07-12T00:36:20;14.50;99.90
37412;DHT22;23278;52.110;6.050;2022-07-12T00:38:46;14.50;99.90
37412;DHT22;23278;52.110;6.050;2022-07-12T00:41:12;14.50;99.90
37412;DHT22;23278;52.110;6.050;2022-07-12T00:43:38;14.50;99.90
37412;DHT22;23278;52.110;6.050;2022-07-12T00:46:04;14.40;99.90
37412;DHT22;23278;52.110;6.050;2022-07-12T00:48:32;14.40;99.90
37412;DHT22;23278;52.110;6.050;2022-07-12T00:50:59;14.30;99.90
37412;DHT22;23278;52.110;6.050;2022-07-12T00:53:25;14.30;99.90
37412;DHT22;23278;52.110;6.050;2022-07-12T00:55:56;14.30;99.90
37412;DHT22;23278;52.110;6.050;2022-07-12T00:58:26;14.30;99.90
37412;DHT22;23278;52.110;6.050;2022-07-12T01:00:54;14.30;99.90
37412;DHT22;23278;52.110;6.050;2022-07-12T01:03:20;14.20;99.90
37412;DHT22;23278;52.110;6.050;2022-07-12T01:05:46;14.10;99.90
37412;DHT22;23278;52.110;6.050;2022-07-12T01:08:13;14.10;99.90
37412;DHT22;23278;52.110;6.050;2022-07-12T01:10:40;14.10;99.90
37412;DHT22;23278;52.110;6.050;2022-07-12T01:13:08;14.00;99.90
37412;DHT22;23278;52.110;6.050;2022-07-12T01:15:34;14.00;99.90
37412;DHT22;23278;52.110;6.050;2022-07-12T01:18:07;14.00;99.90
37412;DHT22;23278;52.110;6.050;2022-07-12T01:20:33;14.00;99.90
37412;DHT22;23278;52.110;6.050;2022-07-12T01:23:00;13.90;99.90
37412;DHT22;23278;52.110;6.050;2022-07-12T01:25:26;13.80;99.90
37412;DHT22;23278;52.110;6.050;2022-07-12T01:27:53;13.90;99.90
37412;DHT22;23278;52.110;6.050;2022-07-12T01:30:19;13.90;99.90
37412;DHT22;23278;52.110;6.050;2022-07-12T01:32:45;13.80;99.90
37412;DHT22;23278;52.110;6.050;2022-07-12T01:35:11;13.80;99.90
37412;DHT22;23278;52.110;6.050;2022-07-12T01:37:41;13.80;99.90
37412;DHT22;23278;52.110;6.050;2022-07-12T01:40:11;13.70;99.90
37412;DHT22;23278;52.110;6.050;2022-07-12T01:42:38;13.70;99.90
37412;DHT22;23278;52.110;6.050;2022-07-12T01:45:06;13.60;99.90
37412;DHT22;23278;52.110;6.050;2022-07-12T01:47:33;13.60;99.90
37412;DHT22;23278;52.110;6.050;2022-07-12T01:49:59;13.60;99.90
37412;DHT22;23278;52.110;6.050;2022-07-12T01:52:25;13.60;99.90
37412;DHT22;23278;52.110;6.050;2022-07-12T01:54:53;13.60;99.90
37412;DHT22;23278;52.110;6.050;2022-07-12T01:57:19;13.50;99.90
37412;DHT22;23278;52.110;6.050;2022-07-12T01:59:46;13.50;99.90
37412;DHT22;23278;52.110;6.050;2022-07-12T02:02:11;13.50;99.90
37412;DHT22;23278;52.110;6.050;2022-07-12T02:04:38;13.50;99.90
37412;DHT22;23278;52.110;6.050;2022-07-12T02:07:04;13.50;99.90
37412;DHT22;23278;52.110;6.050;2022-07-12T02:09:31;13.50;99.90
37412;DHT22;23278;52.110;6.050;2022-07-12T02:11:57;13.40;99.90
37412;DHT22;23278;52.110;6.050;2022-07-12T02:14:23;13.40;99.90
37412;DHT22;23278;52.110;6.050;2022-07-12T02:16:50;13.40;99.90
37412;DHT22;23278;52.110;6.050;2022-07-12T02:19:16;13.40;99.90
37412;DHT22;23278;52.110;6.050;2022-07-12T02:21:42;13.40;99.90
37412;DHT22;23278;52.110;6.050;2022-07-12T02:24:08;13.40;99.90
37412;DHT22;23278;52.110;6.050;2022-07-12T02:26:35;13.40;99.90
37412;DHT22;23278;52.110;6.050;2022-07-12T02:29:02;13.40;99.90
37412;DHT22;23278;52.110;6.050;2022-07-12T02:31:28;13.40;99.90
37412;DHT22;23278;52.110;6.050;2022-07-12T02:33:54;13.40;99.90
37412;DHT22;23278;52.110;6.050;2022-07-12T02:36:19;13.30;99.90
37412;DHT22;23278;52.110;6.050;2022-07-12T02:38:45;13.30;99.90
37412;DHT22;23278;52.110;6.050;2022-07-12T02:41:11;13.30;99.90
37412;DHT22;23278;52.110;6.050;2022-07-12T02:43:37;13.30;99.90
37412;DHT22;23278;52.110;6.050;2022-07-12T02:46:05;13.30;99.90
37412;DHT22;23278;52.110;6.050;2022-07-12T02:48:32;13.30;99.90
37412;DHT22;23278;52.110;6.050;2022-07-12T02:51:00;13.30;99.90
37412;DHT22;23278;52.110;6.050;2022-07-12T02:53:26;13.30;99.90
37412;DHT22;23278;52.110;6.050;2022-07-12T02:55:52;13.20;99.90
37412;DHT22;23278;52.110;6.050;2022-07-12T02:58:18;13.20;99.90
37412;DHT22;23278;52.110;6.050;2022-07-12T03:00:44;13.20;99.90
37412;DHT22;23278;52.110;6.050;2022-07-12T03:03:13;13.20;99.90
37412;DHT22;23278;52.110;6.050;2022-07-12T03:05:40;13.20;99.90
37412;DHT22;23278;52.110;6.050;2022-07-12T03:08:07;13.20;99.90
37412;DHT22;23278;52.110;6.050;2022-07-12T03:10:34;13.10;99.90
37412;DHT22;23278;52.110;6.050;2022-07-12T03:13:00;13.00;99.90
37412;DHT22;23278;52.110;6.050;2022-07-12T03:15:27;13.00;99.90
37412;DHT22;23278;52.110;6.050;2022-07-12T03:17:57;13.00;99.90
37412;DHT22;23278;52.110;6.050;2022-07-12T03:20:23;13.00;99.90
37412;DHT22;23278;52.110;6.050;2022-07-12T03:22:49;12.90;99.90
37412;DHT22;23278;52.110;6.050;2022-07-12T03:25:18;12.90;99.90
37412;DHT22;23278;52.110;6.050;2022-07-12T03:27:44;12.90;99.90
37412;DHT22;23278;52.110;6.050;2022-07-12T03:30:11;12.80;99.90
37412;DHT22;23278;52.110;6.050;2022-07-12T03:32:37;12.80;99.90
37412;DHT22;23278;52.110;6.050;2022-07-12T03:35:04;12.80;99.90
37412;DHT22;23278;52.110;6.050;2022-07-12T03:37:49;12.80;99.90
37412;DHT22;23278;52.110;6.050;2022-07-12T03:40:18;12.80;99.90
37412;DHT22;23278;52.110;6.050;2022-07-12T03:42:45;12.80;99.90
37412;DHT22;23278;52.110;6.050;2022-07-12T03:45:12;12.80;99.90
37412;DHT22;23278;52.110;6.050;2022-07-12T03:47:39;12.80;99.90
37412;DHT22;23278;52.110;6.050;2022-07-12T03:50:12;12.80;99.90
37412;DHT22;23278;52.110;6.050;2022-07-12T03:52:40;12.80;99.90
37412;DHT22;23278;52.110;6.050;2022-07-12T03:55:07;12.70;99.90
37412;DHT22;23278;52.110;6.050;2022-07-12T03:57:33;12.70;99.90
37412;DHT22;23278;52.110;6.050;2022-07-12T03:59:59;12.70;99.90
37412;DHT22;23278;52.110;6.050;2022-07-12T04:02:25;12.70;99.90
37412;DHT22;23278;52.110;6.050;2022-07-12T04:04:51;12.70;99.90
37412;DHT22;23278;52.110;6.050;2022-07-12T04:07:18;12.70;99.90
37412;DHT22;23278;52.110;6.050;2022-07-12T04:09:44;12.70;99.90
37412;DHT22;23278;52.110;6.050;2022-07-12T04:12:10;12.70;99.90
37412;DHT22;23278;52.110;6.050;2022-07-12T04:14:36;12.80;99.90
37412;DHT22;23278;52.110;6.050;2022-07-12T04:17:03;12.80;99.90
37412;DHT22;23278;52.110;6.050;2022-07-12T04:19:29;12.80;99.90
37412;DHT22;23278;52.110;6.050;2022-07-12T04:21:57;12.80;99.90
37412;DHT22;23278;52.110;6.050;2022-07-12T04:24:23;12.80;99.90
37412;DHT22;23278;52.110;6.050;2022-07-12T04:26:49;12.80;99.90
37412;DHT22;23278;52.110;6.050;2022-07-12T04:29:16;12.80;99.90
37412;DHT22;23278;52.110;6.050;2022-07-12T04:31:42;12.80;99.90
37412;DHT22;23278;52.110;6.050;2022-07-12T04:34:08;12.90;99.90
37412;DHT22;23278;52.110;6.050;2022-07-12T04:36:34;12.90;99.90
37412;DHT22;23278;52.110;6.050;2022-07-12T04:39:00;13.00;99.90
37412;DHT22;23278;52.110;6.050;2022-07-12T04:41:26;13.00;99.90
37412;DHT22;23278;52.110;6.050;2022-07-12T04:43:51;13.10;99.90
37412;DHT22;23278;52.110;6.050;2022-07-12T04:46:17;13.10;99.90
37412;DHT22;23278;52.110;6.050;2022-07-12T04:48:43;13.20;99.90
37412;DHT22;23278;52.110;6.050;2022-07-12T04:51:09;13.30;99.90
37412;DHT22;23278;52.110;6.050;2022-07-12T04:53:35;13.30;99.90
37412;DHT22;23278;52.110;6.050;2022-07-12T04:56:01;13.40;99.90
37412;DHT22;23278;52.110;6.050;2022-07-12T04:58:27;13.40;99.90
37412;DHT22;23278;52.110;6.050;2022-07-12T05:00:53;13.50;99.90
37412;DHT22;23278;52.110;6.050;2022-07-12T05:03:19;13.60;99.90
37412;DHT22;23278;52.110;6.050;2022-07-12T05:05:45;13.60;99.90
37412;DHT22;23278;52.110;6.050;2022-07-12T05:08:11;13.70;99.90
37412;DHT22;23278;52.110;6.050;2022-07-12T05:10:37;13.70;99.90
37412;DHT22;23278;52.110;6.050;2022-07-12T05:13:02;13.70;99.90
37412;DHT22;23278;52.110;6.050;2022-07-12T05:15:28;13.70;99.90
37412;DHT22;23278;52.110;6.050;2022-07-12T05:17:54;13.70;99.90
37412;DHT22;23278;52.110;6.050;2022-07-12T05:20:20;13.80;99.90
37412;DHT22;23278;52.110;6.050;2022-07-12T05:22:46;13.80;99.90
37412;DHT22;23278;52.110;6.050;2022-07-12T05:25:12;13.80;99.90
37412;DHT22;23278;52.110;6.050;2022-07-12T05:27:38;13.90;99.90
37412;DHT22;23278;52.110;6.050;2022-07-12T05:30:04;13.90;99.90
37412;DHT22;23278;52.110;6.050;2022-07-12T05:32:31;14.00;99.90
37412;DHT22;23278;52.110;6.050;2022-07-12T05:34:57;14.10;99.90
37412;DHT22;23278;52.110;6.050;2022-07-12T05:37:23;14.10;99.90
37412;DHT22;23278;52.110;6.050;2022-07-12T05:39:52;14.20;99.90
37412;DHT22;23278;52.110;6.050;2022-07-12T05:42:18;14.30;99.90
37412;DHT22;23278;52.110;6.050;2022-07-12T05:44:44;14.30;99.90
37412;DHT22;23278;52.110;6.050;2022-07-12T05:47:10;14.40;99.90
37412;DHT22;23278;52.110;6.050;2022-07-12T05:49:36;14.50;99.90
37412;DHT22;23278;52.110;6.050;2022-07-12T05:52:02;14.50;99.90
37412;DHT22;23278;52.110;6.050;2022-07-12T05:54:47;14.60;99.90
37412;DHT22;23278;52.110;6.050;2022-07-12T05:57:14;14.60;99.90
37412;DHT22;23278;52.110;6.050;2022-07-12T05:59:40;14.70;99.90
37412;DHT22;23278;52.110;6.050;2022-07-12T06:02:06;14.70;99.90
37412;DHT22;23278;52.110;6.050;2022-07-12T06:04:32;14.80;99.90
37412;DHT22;23278;52.110;6.050;2022-07-12T06:06:58;14.80;99.90
37412;DHT22;23278;52.110;6.050;2022-07-12T06:09:24;15.00;99.90
37412;DHT22;23278;52.110;6.050;2022-07-12T06:11:49;15.10;99.90
37412;DHT22;23278;52.110;6.050;2022-07-12T06:14:15;15.20;99.90
37412;DHT22;23278;52.110;6.050;2022-07-12T06:16:41;15.40;99.90
37412;DHT22;23278;52.110;6.050;2022-07-12T06:19:07;15.50;99.90
37412;DHT22;23278;52.110;6.050;2022-07-12T06:21:33;15.70;99.90
37412;DHT22;23278;52.110;6.050;2022-07-12T06:23:59;15.90;99.90
37412;DHT22;23278;52.110;6.050;2022-07-12T06:26:25;16.00;99.90
37412;DHT22;23278;52.110;6.050;2022-07-12T06:28:51;16.20;99.90
37412;DHT22;23278;52.110;6.050;2022-07-12T06:31:17;16.30;99.90
37412;DHT22;23278;52.110;6.050;2022-07-12T06:33:43;16.50;99.90
37412;DHT22;23278;52.110;6.050;2022-07-12T06:36:09;16.70;99.90
37412;DHT22;23278;52.110;6.050;2022-07-12T06:38:35;16.80;99.90
37412;DHT22;23278;52.110;6.050;2022-07-12T06:41:00;17.00;99.90
37412;DHT22;23278;52.110;6.050;2022-07-12T06:43:26;17.20;99.90
37412;DHT22;23278;52.110;6.050;2022-07-12T06:45:52;17.40;99.90
37412;DHT22;23278;52.110;6.050;2022-07-12T06:48:19;17.50;99.90
37412;DHT22;23278;52.110;6.050;2022-07-12T06:50:45;17.60;99.90
37412;DHT22;23278;52.110;6.050;2022-07-12T06:53:12;17.70;99.90
37412;DHT22;23278;52.110;6.050;2022-07-12T06:55:38;17.80;99.90
37412;DHT22;23278;52.110;6.050;2022-07-12T06:58:04;17.90;99.90
37412;DHT22;23278;52.110;6.050;2022-07-12T07:00:30;17.90;99.90
37412;DHT22;23278;52.110;6.050;2022-07-12T07:02:56;18.00;99.90
37412;DHT22;23278;52.110;6.050;2022-07-12T07:05:22;18.10;99.90
37412;DHT22;23278;52.110;6.050;2022-07-12T07:07:48;18.20;99.90
37412;DHT22;23278;52.110;6.050;2022-07-12T07:10:14;18.30;99.90
37412;DHT22;23278;52.110;6.050;2022-07-12T07:12:40;18.30;99.90
37412;DHT22;23278;52.110;6.050;2022-07-12T07:15:07;18.40;99.90
37412;DHT22;23278;52.110;6.050;2022-07-12T07:17:33;18.50;99.90
37412;DHT22;23278;52.110;6.050;2022-07-12T07:20:00;18.60;99.90
37412;DHT22;23278;52.110;6.050;2022-07-12T07:22:26;18.70;99.90
37412;DHT22;23278;52.110;6.050;2022-07-12T07:24:53;18.90;99.90
37412;DHT22;23278;52.110;6.050;2022-07-12T07:27:19;19.20;99.90
37412;DHT22;23278;52.110;6.050;2022-07-12T07:29:45;19.40;99.90
37412;DHT22;23278;52.110;6.050;2022-07-12T07:32:29;19.70;99.90
37412;DHT22;23278;52.110;6.050;2022-07-12T07:34:55;20.10;99.90
37412;DHT22;23278;52.110;6.050;2022-07-12T07:37:21;20.40;99.90
37412;DHT22;23278;52.110;6.050;2022-07-12T07:39:49;20.70;99.90
37412;DHT22;23278;52.110;6.050;2022-07-12T07:42:15;21.10;99.90
37412;DHT22;23278;52.110;6.050;2022-07-12T07:44:41;21.40;99.60
37412;DHT22;23278;52.110;6.050;2022-07-12T07:47:07;21.70;99.30
37412;DHT22;23278;52.110;6.050;2022-07-12T07:49:33;21.90;98.60
37412;DHT22;23278;52.110;6.050;2022-07-12T07:51:59;22.00;98.60
37412;DHT22;23278;52.110;6.050;2022-07-12T07:54:25;22.00;98.30
37412;DHT22;23278;52.110;6.050;2022-07-12T07:56:51;22.10;98.30
37412;DHT22;23278;52.110;6.050;2022-07-12T07:59:17;22.10;98.00
37412;DHT22;23278;52.110;6.050;2022-07-12T08:01:43;22.10;97.90
37412;DHT22;23278;52.110;6.050;2022-07-12T08:04:16;22.20;97.80
37412;DHT22;23278;52.110;6.050;2022-07-12T08:06:45;22.30;97.00
37412;DHT22;23278;52.110;6.050;2022-07-12T08:09:11;22.40;96.70
37412;DHT22;23278;52.110;6.050;2022-07-12T08:11:37;22.60;96.50
37412;DHT22;23278;52.110;6.050;2022-07-12T08:14:04;22.70;96.00
37412;DHT22;23278;52.110;6.050;2022-07-12T08:16:31;22.90;95.60
37412;DHT22;23278;52.110;6.050;2022-07-12T08:18:57;23.00;95.40
37412;DHT22;23278;52.110;6.050;2022-07-12T08:21:23;23.00;94.70
37412;DHT22;23278;52.110;6.050;2022-07-12T08:23:50;23.10;94.50
37412;DHT22;23278;52.110;6.050;2022-07-12T08:26:16;23.20;94.30
37412;DHT22;23278;52.110;6.050;2022-07-12T08:28:42;23.30;94.10
37412;DHT22;23278;52.110;6.050;2022-07-12T08:31:09;23.50;93.60
37412;DHT22;23278;52.110;6.050;2022-07-12T08:33:35;23.60;93.30
37412;DHT22;23278;52.110;6.050;2022-07-12T08:36:01;23.80;93.10
37412;DHT22;23278;52.110;6.050;2022-07-12T08:38:27;24.00;92.10
37412;DHT22;23278;52.110;6.050;2022-07-12T08:40:53;24.10;92.10
37412;DHT22;23278;52.110;6.050;2022-07-12T08:43:19;24.30;91.80
37412;DHT22;23278;52.110;6.050;2022-07-12T08:45:44;24.40;91.40
37412;DHT22;23278;52.110;6.050;2022-07-12T08:48:10;24.40;90.60
37412;DHT22;23278;52.110;6.050;2022-07-12T08:50:36;24.40;90.60
37412;DHT22;23278;52.110;6.050;2022-07-12T08:53:02;24.30;90.80
37412;DHT22;23278;52.110;6.050;2022-07-12T08:55:35;24.30;90.80
37412;DHT22;23278;52.110;6.050;2022-07-12T08:58:02;24.20;90.60
37412;DHT22;23278;52.110;6.050;2022-07-12T09:00:30;24.10;90.50
37412;DHT22;23278;52.110;6.050;2022-07-12T09:03:02;24.10;90.60
37412;DHT22;23278;52.110;6.050;2022-07-12T09:05:30;24.00;90.30
37412;DHT22;23278;52.110;6.050;2022-07-12T09:08:07;24.00;90.50
37412;DHT22;23278;52.110;6.050;2022-07-12T09:13:20;24.10;90.90
37412;DHT22;23278;52.110;6.050;2022-07-12T09:15:46;24.20;90.80
37412;DHT22;23278;52.110;6.050;2022-07-12T09:18:13;24.30;90.80
37412;DHT22;23278;52.110;6.050;2022-07-12T09:20:42;24.30;90.80
37412;DHT22;23278;52.110;6.050;2022-07-12T09:23:10;24.30;90.40
37412;DHT22;23278;52.110;6.050;2022-07-12T09:25:43;24.30;90.00
37412;DHT22;23278;52.110;6.050;2022-07-12T09:28:09;24.30;90.00
37412;DHT22;23278;52.110;6.050;2022-07-12T09:30:37;24.40;89.50
37412;DHT22;23278;52.110;6.050;2022-07-12T09:33:11;24.40;88.30
37412;DHT22;23278;52.110;6.050;2022-07-12T09:38:51;24.50;87.20
37412;DHT22;23278;52.110;6.050;2022-07-12T09:41:27;24.70;86.40
37412;DHT22;23278;52.110;6.050;2022-07-12T09:43:53;25.00;84.40
37412;DHT22;23278;52.110;6.050;2022-07-12T09:46:19;25.40;83.60
37412;DHT22;23278;52.110;6.050;2022-07-12T09:48:46;26.00;83.00
37412;DHT22;23278;52.110;6.050;2022-07-12T09:51:15;26.60;81.70
37412;DHT22;23278;52.110;6.050;2022-07-12T09:53:47;27.10;80.80
37412;DHT22;23278;52.110;6.050;2022-07-12T09:56:14;27.90;79.10
37412;DHT22;23278;52.110;6.050;2022-07-12T09:58:55;28.40;77.00
37412;DHT22;23278;52.110;6.050;2022-07-12T10:01:22;28.80;71.90
37412;DHT22;23278;52.110;6.050;2022-07-12T10:03:50;29.20;69.00
37412;DHT22;23278;52.110;6.050;2022-07-12T10:06:24;29.50;68.40
37412;DHT22;23278;52.110;6.050;2022-07-12T10:08:51;30.10;65.70
37412;DHT22;23278;52.110;6.050;2022-07-12T10:11:18;30.60;64.60
37412;DHT22;23278;52.110;6.050;2022-07-12T10:13:45;31.20;62.70
37412;DHT22;23278;52.110;6.050;2022-07-12T10:16:13;31.90;60.50
37412;DHT22;23278;52.110;6.050;2022-07-12T10:18:40;32.40;58.50
37412;DHT22;23278;52.110;6.050;2022-07-12T10:21:19;32.80;56.60
37412;DHT22;23278;52.110;6.050;2022-07-12T10:23:47;33.20;53.40
37412;DHT22;23278;52.110;6.050;2022-07-12T10:29:03;34.10;50.50
37412;DHT22;23278;52.110;6.050;2022-07-12T10:31:37;34.90;48.80
37412;DHT22;23278;52.110;6.050;2022-07-12T10:34:22;35.40;47.30
37412;DHT22;23278;52.110;6.050;2022-07-12T10:39:23;36.70;45.10
37412;DHT22;23278;52.110;6.050;2022-07-12T10:45:08;38.10;42.30
37412;DHT22;23278;52.110;6.050;2022-07-12T10:47:53;38.90;41.40
37412;DHT22;23278;52.110;6.050;2022-07-12T10:50:20;39.30;40.10
37412;DHT22;23278;52.110;6.050;2022-07-12T10:53:25;39.70;39.00
37412;DHT22;23278;52.110;6.050;2022-07-12T10:58:40;40.70;37.60
37412;DHT22;23278;52.110;6.050;2022-07-12T11:01:12;41.40;37.10
37412;DHT22;23278;52.110;6.050;2022-07-12T11:03:39;42.00;36.40
37412;DHT22;23278;52.110;6.050;2022-07-12T11:06:07;42.50;35.60
37412;DHT22;23278;52.110;6.050;2022-07-12T11:09:03;41.80;35.10
37412;DHT22;23278;52.110;6.050;2022-07-12T11:11:32;40.80;35.80
37412;DHT22;23278;52.110;6.050;2022-07-12T11:13:59;39.60;36.40
37412;DHT22;23278;52.110;6.050;2022-07-12T11:16:26;38.90;37.00
37412;DHT22;23278;52.110;6.050;2022-07-12T11:18:53;38.70;37.10
37412;DHT22;23278;52.110;6.050;2022-07-12T11:21:20;39.00;36.90
37412;DHT22;23278;52.110;6.050;2022-07-12T11:23:47;39.80;36.30
37412;DHT22;23278;52.110;6.050;2022-07-12T11:26:13;40.70;36.00
37412;DHT22;23278;52.110;6.050;2022-07-12T11:28:41;41.50;35.20
37412;DHT22;23278;52.110;6.050;2022-07-12T11:31:12;42.30;34.70
37412;DHT22;23278;52.110;6.050;2022-07-12T11:33:43;42.60;34.40
37412;DHT22;23278;52.110;6.050;2022-07-12T11:36:11;42.90;34.40
37412;DHT22;23278;52.110;6.050;2022-07-12T11:38:43;43.00;34.40
37412;DHT22;23278;52.110;6.050;2022-07-12T11:41:10;43.40;34.30
37412;DHT22;23278;52.110;6.050;2022-07-12T11:43:38;44.50;34.10
37412;DHT22;23278;52.110;6.050;2022-07-12T11:46:05;45.70;32.80
37412;DHT22;23278;52.110;6.050;2022-07-12T11:48:32;46.50;31.90
37412;DHT22;23278;52.110;6.050;2022-07-12T11:51:07;47.00;31.60
37412;DHT22;23278;52.110;6.050;2022-07-12T11:53:34;47.40;31.30
37412;DHT22;23278;52.110;6.050;2022-07-12T11:56:03;47.00;31.40
37412;DHT22;23278;52.110;6.050;2022-07-12T11:58:29;46.70;31.20
37412;DHT22;23278;52.110;6.050;2022-07-12T12:00:58;46.40;31.80
37412;DHT22;23278;52.110;6.050;2022-07-12T12:03:24;46.40;31.60
37412;DHT22;23278;52.110;6.050;2022-07-12T12:05:53;46.40;31.60
37412;DHT22;23278;52.110;6.050;2022-07-12T12:08:20;46.00;31.40
37412;DHT22;23278;52.110;6.050;2022-07-12T12:10:57;45.80;31.70
37412;DHT22;23278;52.110;6.050;2022-07-12T12:13:24;46.10;31.40
37412;DHT22;23278;52.110;6.050;2022-07-12T12:15:55;46.90;30.90
37412;DHT22;23278;52.110;6.050;2022-07-12T12:18:34;47.70;30.70
37412;DHT22;23278;52.110;6.050;2022-07-12T12:21:03;48.00;30.60
37412;DHT22;23278;52.110;6.050;2022-07-12T12:23:29;48.10;30.50
37412;DHT22;23278;52.110;6.050;2022-07-12T12:26:15;48.00;30.40
37412;DHT22;23278;52.110;6.050;2022-07-12T12:28:51;47.60;30.20
37412;DHT22;23278;52.110;6.050;2022-07-12T12:31:19;47.50;30.30
37412;DHT22;23278;52.110;6.050;2022-07-12T12:33:48;48.00;30.20
37412;DHT22;23278;52.110;6.050;2022-07-12T12:36:16;48.80;30.00
37412;DHT22;23278;52.110;6.050;2022-07-12T12:38:43;48.80;29.40
37412;DHT22;23278;52.110;6.050;2022-07-12T12:41:09;48.60;29.40
37412;DHT22;23278;52.110;6.050;2022-07-12T12:43:36;48.60;29.30
37412;DHT22;23278;52.110;6.050;2022-07-12T12:46:02;49.00;29.20
37412;DHT22;23278;52.110;6.050;2022-07-12T12:48:32;49.40;28.80
37412;DHT22;23278;52.110;6.050;2022-07-12T12:51:09;49.60;29.20
37412;DHT22;23278;52.110;6.050;2022-07-12T12:53:36;50.10;29.40
37412;DHT22;23278;52.110;6.050;2022-07-12T12:56:06;50.20;29.50
37412;DHT22;23278;52.110;6.050;2022-07-12T12:58:32;50.00;28.80
37412;DHT22;23278;52.110;6.050;2022-07-12T13:00:58;49.60;28.80
37412;DHT22;23278;52.110;6.050;2022-07-12T13:03:24;49.10;28.80
37412;DHT22;23278;52.110;6.050;2022-07-12T13:05:51;48.30;29.60
37412;DHT22;23278;52.110;6.050;2022-07-12T13:08:16;47.80;29.20
37412;DHT22;23278;52.110;6.050;2022-07-12T13:10:44;47.20;29.60
37412;DHT22;23278;52.110;6.050;2022-07-12T13:13:11;47.20;29.80
37412;DHT22;23278;52.110;6.050;2022-07-12T13:15:38;46.60;29.90
37412;DHT22;23278;52.110;6.050;2022-07-12T13:18:05;45.90;30.00
37412;DHT22;23278;52.110;6.050;2022-07-12T13:20:32;45.40;30.00
37412;DHT22;23278;52.110;6.050;2022-07-12T13:22:58;45.20;30.20
37412;DHT22;23278;52.110;6.050;2022-07-12T13:25:25;44.50;30.50
37412;DHT22;23278;52.110;6.050;2022-07-12T13:27:52;43.50;30.90
37412;DHT22;23278;52.110;6.050;2022-07-12T13:30:19;42.90;31.40
37412;DHT22;23278;52.110;6.050;2022-07-12T13:32:45;42.60;31.40
37412;DHT22;23278;52.110;6.050;2022-07-12T13:35:13;42.90;30.70
37412;DHT22;23278;52.110;6.050;2022-07-12T13:37:41;44.00;29.90
37412;DHT22;23278;52.110;6.050;2022-07-12T13:40:07;44.70;29.60
37412;DHT22;23278;52.110;6.050;2022-07-12T13:45:07;45.80;29.80
37412;DHT22;23278;52.110;6.050;2022-07-12T13:47:34;46.40;29.70
37412;DHT22;23278;52.110;6.050;2022-07-12T13:50:00;46.80;29.50
37412;DHT22;23278;52.110;6.050;2022-07-12T13:52:26;46.80;29.20
37412;DHT22;23278;52.110;6.050;2022-07-12T13:54:52;46.70;29.00
37412;DHT22;23278;52.110;6.050;2022-07-12T13:57:18;46.40;29.30
37412;DHT22;23278;52.110;6.050;2022-07-12T13:59:44;46.60;29.20
37412;DHT22;23278;52.110;6.050;2022-07-12T14:02:12;47.10;28.50
37412;DHT22;23278;52.110;6.050;2022-07-12T14:04:38;47.30;28.30
37412;DHT22;23278;52.110;6.050;2022-07-12T14:07:04;47.70;28.20
37412;DHT22;23278;52.110;6.050;2022-07-12T14:09:30;48.10;27.90
37412;DHT22;23278;52.110;6.050;2022-07-12T14:11:56;48.40;28.00
37412;DHT22;23278;52.110;6.050;2022-07-12T14:14:22;48.10;28.10
37412;DHT22;23278;52.110;6.050;2022-07-12T14:17:10;48.20;28.20
37412;DHT22;23278;52.110;6.050;2022-07-12T14:19:36;48.20;28.40
37412;DHT22;23278;52.110;6.050;2022-07-12T14:22:02;48.10;28.40
37412;DHT22;23278;52.110;6.050;2022-07-12T14:24:28;47.80;28.60
37412;DHT22;23278;52.110;6.050;2022-07-12T14:26:54;47.30;28.40
37412;DHT22;23278;52.110;6.050;2022-07-12T14:29:20;46.60;28.20
37412;DHT22;23278;52.110;6.050;2022-07-12T14:31:46;45.90;28.30
37412;DHT22;23278;52.110;6.050;2022-07-12T14:34:12;45.60;28.40
37412;DHT22;23278;52.110;6.050;2022-07-12T14:36:38;45.40;28.60
37412;DHT22;23278;52.110;6.050;2022-07-12T14:39:04;45.20;28.70
37412;DHT22;23278;52.110;6.050;2022-07-12T14:41:30;44.80;28.70
37412;DHT22;23278;52.110;6.050;2022-07-12T14:43:55;44.40;28.70
37412;DHT22;23278;52.110;6.050;2022-07-12T14:46:22;44.20;28.90
37412;DHT22;23278;52.110;6.050;2022-07-12T14:48:48;44.50;28.90
37412;DHT22;23278;52.110;6.050;2022-07-12T14:51:14;44.90;28.70
37412;DHT22;23278;52.110;6.050;2022-07-12T14:53:40;45.20;28.40
37412;DHT22;23278;52.110;6.050;2022-07-12T14:56:07;44.80;28.30
37412;DHT22;23278;52.110;6.050;2022-07-12T14:58:33;44.20;28.80
37412;DHT22;23278;52.110;6.050;2022-07-12T15:00:59;43.70;29.10
37412;DHT22;23278;52.110;6.050;2022-07-12T15:03:25;43.10;29.10
37412;DHT22;23278;52.110;6.050;2022-07-12T15:05:52;42.70;29.50
37412;DHT22;23278;52.110;6.050;2022-07-12T15:08:18;42.40;29.80
37412;DHT22;23278;52.110;6.050;2022-07-12T15:10:44;42.00;29.80
37412;DHT22;23278;52.110;6.050;2022-07-12T15:13:10;41.40;30.00
37412;DHT22;23278;52.110;6.050;2022-07-12T15:15:36;40.60;30.20
37412;DHT22;23278;52.110;6.050;2022-07-12T15:18:02;39.60;30.60
37412;DHT22;23278;52.110;6.050;2022-07-12T15:20:28;38.90;31.30
37412;DHT22;23278;52.110;6.050;2022-07-12T15:22:54;38.20;31.60
37412;DHT22;23278;52.110;6.050;2022-07-12T15:25:19;37.50;32.10
37412;DHT22;23278;52.110;6.050;2022-07-12T15:27:45;36.90;32.40
37412;DHT22;23278;52.110;6.050;2022-07-12T15:30:11;36.40;32.90
37412;DHT22;23278;52.110;6.050;2022-07-12T15:32:37;35.80;33.30
37412;DHT22;23278;52.110;6.050;2022-07-12T15:35:07;35.50;34.00
37412;DHT22;23278;52.110;6.050;2022-07-12T15:37:33;35.10;34.20
37412;DHT22;23278;52.110;6.050;2022-07-12T15:39:59;34.80;34.50
37412;DHT22;23278;52.110;6.050;2022-07-12T15:42:27;34.60;35.40
37412;DHT22;23278;52.110;6.050;2022-07-12T15:44:53;34.50;35.60
37412;DHT22;23278;52.110;6.050;2022-07-12T15:47:19;34.10;35.90
37412;DHT22;23278;52.110;6.050;2022-07-12T15:49:45;33.80;36.40
37412;DHT22;23278;52.110;6.050;2022-07-12T15:52:11;33.60;36.80